Belet Uen Airport


Codes: HCMN/
Name: Belet Uen Airport
City: Belet Uen
Country: Somalia
Elevation: 559 ft.

Photos at Belet Uen Airport


   Photos courtesy of SpottingLog. You can add your own sightings and photos by signing up for a free trial today.



No photos found.

Weather at Belet Uen Airport


Time (UTC)DescriptionTempratureWindCloud coverageVisibilityPressureHumidity
16-Jun-2024 09:00Broken Clouds34°C18 mph, SW73%10000m1010hPa27%
16-Jun-2024 12:00Broken Clouds35°C18 mph, SW76%10000m1009hPa25%
16-Jun-2024 15:00Overcast Clouds34°C20 mph, S91%10000m1009hPa28%
16-Jun-2024 18:00Overcast Clouds30°C18 mph, S87%10000m1010hPa38%
16-Jun-2024 21:00Overcast Clouds26°C18 mph, S90%10000m1011hPa73%
17-Jun-2024 00:00Broken Clouds25°C16 mph, S69%10000m1011hPa74%
17-Jun-2024 03:00Scattered Clouds24°C16 mph, S49%10000m1013hPa80%
17-Jun-2024 06:00Broken Clouds28°C20 mph, SW74%10000m1015hPa52%
17-Jun-2024 09:00Broken Clouds34°C20 mph, SW67%10000m1012hPa34%
17-Jun-2024 12:00Broken Clouds35°C22 mph, SW82%10000m1009hPa32%
17-Jun-2024 15:00Overcast Clouds32°C20 mph, S100%10000m1010hPa40%
17-Jun-2024 18:00Overcast Clouds30°C22 mph, S100%10000m1011hPa46%
17-Jun-2024 21:00Overcast Clouds26°C20 mph, S100%10000m1012hPa67%
18-Jun-2024 00:00Overcast Clouds25°C16 mph, S100%10000m1012hPa77%
18-Jun-2024 03:00Overcast Clouds25°C16 mph, SW100%10000m1013hPa78%
18-Jun-2024 06:00Overcast Clouds29°C20 mph, SW100%10000m1014hPa56%
18-Jun-2024 09:00Overcast Clouds33°C20 mph, SW100%10000m1012hPa39%
18-Jun-2024 12:00Overcast Clouds36°C20 mph, SW100%10000m1009hPa30%
18-Jun-2024 15:00Overcast Clouds33°C20 mph, S96%10000m1009hPa38%
18-Jun-2024 18:00Broken Clouds30°C20 mph, S81%10000m1012hPa53%
18-Jun-2024 21:00Few Clouds27°C18 mph, S11%10000m1012hPa68%
19-Jun-2024 00:00Scattered Clouds25°C13 mph, S34%10000m1012hPa76%
19-Jun-2024 03:00Broken Clouds24°C13 mph, SW56%10000m1013hPa80%
19-Jun-2024 06:00Scattered Clouds29°C18 mph, SW42%10000m1013hPa56%
19-Jun-2024 09:00Broken Clouds34°C18 mph, SW74%10000m1011hPa38%
19-Jun-2024 12:00Broken Clouds36°C20 mph, SW70%10000m1007hPa28%
19-Jun-2024 15:00Overcast Clouds34°C25 mph, S96%10000m1008hPa37%
19-Jun-2024 18:00Overcast Clouds30°C22 mph, S98%10000m1011hPa55%
19-Jun-2024 21:00Overcast Clouds27°C20 mph, S100%10000m1012hPa64%
20-Jun-2024 00:00Overcast Clouds25°C16 mph, S100%10000m1012hPa75%
20-Jun-2024 03:00Overcast Clouds24°C16 mph, S100%10000m1013hPa81%
20-Jun-2024 06:00Overcast Clouds29°C20 mph, SW98%10000m1014hPa54%
20-Jun-2024 09:00Broken Clouds34°C20 mph, SW61%10000m1012hPa36%
20-Jun-2024 12:00Broken Clouds36°C20 mph, SW81%10000m1009hPa31%
20-Jun-2024 15:00Overcast Clouds33°C25 mph, SW100%10000m1009hPa39%
20-Jun-2024 18:00Overcast Clouds29°C22 mph, S90%10000m1012hPa60%
20-Jun-2024 21:00Overcast Clouds27°C20 mph, S100%10000m1013hPa67%
21-Jun-2024 00:00Overcast Clouds25°C20 mph, S99%10000m1013hPa75%
21-Jun-2024 03:00Overcast Clouds25°C16 mph, SW100%10000m1014hPa78%
21-Jun-2024 06:00Broken Clouds29°C22 mph, SW68%10000m1015hPa54%